Time,TemperatureF,DewpointF,PressureIn,WindDirection,WindDirectionDegrees,WindSpeedMPH,WindSpeedGustMPH,Humidity,HourlyPrecipIn,Conditions,Clouds,dailyrainin,SolarRadiationWatts/m^2,SoftwareType,DateUTC
2013-03-01 00:02:00,23.0,16.0,-100.00,NE,39,8.0,17.0,74,0.00,,,0.00,0.000000,,2013-03-01 06:02:00,
2013-03-01 00:11:00,23.0,16.0,-100.00,NE,39,8.0,17.0,74,0.00,,,0.00,0.000000,,2013-03-01 06:11:00,
2013-03-01 00:32:00,22.0,14.0,-100.00,NE,35,8.0,16.0,72,0.00,,,0.00,0.000000,,2013-03-01 06:32:00,
2013-03-01 00:42:00,22.0,14.0,-100.00,NE,35,8.0,16.0,72,0.00,,,0.00,0.000000,,2013-03-01 06:42:00,
2013-03-01 00:53:00,22.0,14.0,-100.00,NE,35,8.0,16.0,72,0.00,,,0.00,0.000000,,2013-03-01 06:53:00,
2013-03-01 01:02:00,22.0,14.0,-100.00,NE,35,8.0,16.0,72,0.00,,,0.00,0.000000,,2013-03-01 07:02:00,
2013-03-01 01:11:00,22.0,14.0,-100.00,NE,35,8.0,16.0,72,0.00,,,0.00,0.000000,,2013-03-01 07:11:00,
2013-03-01 01:32:00,22.0,14.0,-100.00,NNE,29,8.0,19.0,70,0.00,,,0.00,0.000000,,2013-03-01 07:32:00,
2013-03-01 01:42:00,22.0,14.0,-100.00,NNE,29,8.0,19.0,70,0.00,,,0.00,0.000000,,2013-03-01 07:42:00,
2013-03-01 01:52:00,22.0,14.0,-100.00,NNE,29,8.0,19.0,70,0.00,,,0.00,0.000000,,2013-03-01 07:52:00,
2013-03-01 02:02:00,22.0,14.0,-100.00,NNE,29,8.0,19.0,70,0.00,,,0.00,0.000000,,2013-03-01 08:02:00,
2013-03-01 02:11:00,22.0,14.0,-100.00,NNE,29,8.0,19.0,70,0.00,,,0.00,0.000000,,2013-03-01 08:11:00,
2013-03-01 02:12:00,21.0,14.0,-100.00,NNE,24,6.0,19.0,73,0.00,,,0.00,0.000000,,2013-03-01 08:12:00,
2013-03-01 02:33:00,21.0,14.0,-100.00,NNE,24,6.0,19.0,73,0.00,,,0.00,0.000000,,2013-03-01 08:33:00,
2013-03-01 02:43:00,21.0,14.0,-100.00,NNE,24,6.0,19.0,73,0.00,,,0.00,0.000000,,2013-03-01 08:43:00,
2013-03-01 02:53:00,21.0,14.0,-100.00,NNE,24,6.0,19.0,73,0.00,,,0.00,0.000000,,2013-03-01 08:53:00,
2013-03-01 03:02:00,21.0,14.0,-100.00,NNE,24,6.0,19.0,73,0.00,,,0.00,0.000000,,2013-03-01 09:02:00,
2013-03-01 03:32:00,21.0,13.0,-100.00,NNE,20,8.0,21.0,72,0.00,,,0.00,0.000000,,2013-03-01 09:32:00,
2013-03-01 03:42:00,21.0,13.0,-100.00,NNE,20,8.0,21.0,72,0.00,,,0.00,0.000000,,2013-03-01 09:42:00,
2013-03-01 03:52:00,21.0,13.0,-100.00,NNE,20,8.0,21.0,72,0.00,,,0.00,0.000000,,2013-03-01 09:52:00,
2013-03-01 04:02:00,21.0,13.0,-100.00,NNE,20,8.0,21.0,72,0.00,,,0.00,0.000000,,2013-03-01 10:02:00,
2013-03-01 04:11:00,21.0,13.0,-100.00,NNE,20,8.0,21.0,72,0.00,,,0.00,0.000000,,2013-03-01 10:11:00,
2013-03-01 04:32:00,20.0,12.0,-100.00,NNE,22,9.0,19.0,71,0.00,,,0.00,0.000000,,2013-03-01 10:32:00,
2013-03-01 04:42:00,20.0,12.0,-100.00,NNE,22,9.0,19.0,71,0.00,,,0.00,0.000000,,2013-03-01 10:42:00,
2013-03-01 04:53:00,20.0,12.0,-100.00,NNE,22,9.0,19.0,71,0.00,,,0.00,0.000000,,2013-03-01 10:53:00,
2013-03-01 05:01:00,20.0,12.0,-100.00,NNE,22,9.0,19.0,71,0.00,,,0.00,0.000000,,2013-03-01 11:01:00,
2013-03-01 05:11:00,20.0,12.0,-100.00,NNE,22,9.0,19.0,71,0.00,,,0.00,0.000000,,2013-03-01 11:11:00,
2013-03-01 05:32:00,20.0,13.0,-100.00,NNE,26,8.0,22.0,75,0.00,,,0.00,0.000000,,2013-03-01 11:32:00,
2013-03-01 05:42:00,20.0,13.0,-100.00,NNE,26,8.0,22.0,75,0.00,,,0.00,0.000000,,2013-03-01 11:42:00,
2013-03-01 05:52:00,20.0,13.0,-100.00,NNE,26,8.0,22.0,75,0.00,,,0.00,0.000000,,2013-03-01 11:52:00,
2013-03-01 06:01:00,20.0,13.0,-100.00,NNE,26,8.0,22.0,75,0.00,,,0.00,0.000000,,2013-03-01 12:01:00,
2013-03-01 06:11:00,20.0,13.0,-100.00,NNE,26,8.0,22.0,75,0.00,,,0.00,0.000000,,2013-03-01 12:11:00,
2013-03-01 06:32:00,20.0,13.0,-100.00,NNE,29,8.0,20.0,74,0.00,,,0.00,0.000000,,2013-03-01 12:32:00,
2013-03-01 06:42:00,20.0,13.0,-100.00,NNE,29,8.0,20.0,74,0.00,,,0.00,0.000000,,2013-03-01 12:42:00,
2013-03-01 06:52:00,20.0,13.0,-100.00,NNE,29,8.0,20.0,74,0.00,,,0.00,0.000000,,2013-03-01 12:52:00,
2013-03-01 07:01:00,20.0,13.0,-100.00,NNE,29,8.0,20.0,74,0.00,,,0.00,0.000000,,2013-03-01 13:01:00,
2013-03-01 07:11:00,20.0,13.0,-100.00,NNE,29,8.0,20.0,74,0.00,,,0.00,0.000000,,2013-03-01 13:11:00,
2013-03-01 07:32:00,20.0,13.0,-100.00,NNE,19,8.0,22.0,75,0.00,,,0.00,12.000000,,2013-03-01 13:32:00,
2013-03-01 07:42:00,20.0,13.0,-100.00,NNE,19,8.0,22.0,75,0.00,,,0.00,12.000000,,2013-03-01 13:42:00,
2013-03-01 07:52:00,20.0,13.0,-100.00,NNE,19,8.0,22.0,75,0.00,,,0.00,12.000000,,2013-03-01 13:52:00,
2013-03-01 08:01:00,20.0,13.0,-100.00,NNE,19,8.0,22.0,75,0.00,,,0.00,12.000000,,2013-03-01 14:01:00,
2013-03-01 08:11:00,20.0,13.0,-100.00,NNE,19,8.0,22.0,75,0.00,,,0.00,12.000000,,2013-03-01 14:11:00,
2013-03-01 08:32:00,21.0,13.0,-100.00,NNE,30,8.0,21.0,72,0.00,,,0.00,60.000000,,2013-03-01 14:32:00,
2013-03-01 08:42:00,21.0,13.0,-100.00,NNE,30,8.0,21.0,72,0.00,,,0.00,60.000000,,2013-03-01 14:42:00,
2013-03-01 08:52:00,21.0,13.0,-100.00,NNE,30,8.0,21.0,72,0.00,,,0.00,60.000000,,2013-03-01 14:52:00,
2013-03-01 09:01:00,21.0,13.0,-100.00,NNE,30,8.0,21.0,72,0.00,,,0.00,60.000000,,2013-03-01 15:01:00,
2013-03-01 09:11:00,21.0,13.0,-100.00,NNE,30,8.0,21.0,72,0.00,,,0.00,60.000000,,2013-03-01 15:11:00,
2013-03-01 09:32:00,22.0,13.0,-100.00,NNE,33,10.0,21.0,67,0.00,,,0.00,156.000000,,2013-03-01 15:32:00,
2013-03-01 09:42:00,22.0,13.0,-100.00,NNE,33,10.0,21.0,67,0.00,,,0.00,156.000000,,2013-03-01 15:42:00,
2013-03-01 09:52:00,22.0,13.0,-100.00,NNE,33,10.0,21.0,67,0.00,,,0.00,156.000000,,2013-03-01 15:52:00,
2013-03-01 10:01:00,22.0,13.0,-100.00,NNE,33,10.0,21.0,67,0.00,,,0.00,156.000000,,2013-03-01 16:01:00,
2013-03-01 10:11:00,22.0,13.0,-100.00,NNE,33,10.0,21.0,67,0.00,,,0.00,156.000000,,2013-03-01 16:11:00,
2013-03-01 10:32:00,24.0,13.0,-100.00,NNE,21,10.0,21.0,61,0.00,,,0.00,271.000000,,2013-03-01 16:32:00,
2013-03-01 10:42:00,24.0,13.0,-100.00,NNE,21,10.0,21.0,61,0.00,,,0.00,271.000000,,2013-03-01 16:42:00,
2013-03-01 10:52:00,24.0,13.0,-100.00,NNE,21,10.0,21.0,61,0.00,,,0.00,271.000000,,2013-03-01 16:52:00,
2013-03-01 11:01:00,24.0,13.0,-100.00,NNE,21,10.0,21.0,61,0.00,,,0.00,271.000000,,2013-03-01 17:01:00,
2013-03-01 11:11:00,24.0,13.0,-100.00,NNE,21,10.0,21.0,61,0.00,,,0.00,271.000000,,2013-03-01 17:11:00,
2013-03-01 11:12:00,26.0,13.0,-100.00,NE,34,10.0,22.0,58,0.00,,,0.00,397.000000,,2013-03-01 17:12:00,
2013-03-01 11:32:00,26.0,13.0,-100.00,NE,34,10.0,22.0,58,0.00,,,0.00,397.000000,,2013-03-01 17:32:00,
2013-03-01 11:42:00,26.0,13.0,-100.00,NE,34,10.0,22.0,58,0.00,,,0.00,397.000000,,2013-03-01 17:42:00,
2013-03-01 11:52:00,26.0,13.0,-100.00,NE,34,10.0,22.0,58,0.00,,,0.00,397.000000,,2013-03-01 17:52:00,
2013-03-01 12:01:00,26.0,13.0,-100.00,NE,34,10.0,22.0,58,0.00,,,0.00,397.000000,,2013-03-01 18:01:00,
2013-03-01 12:32:00,28.0,13.0,-100.00,North,2,10.0,31.0,52,0.00,,,0.00,530.000000,,2013-03-01 18:32:00,
2013-03-01 12:42:00,28.0,13.0,-100.00,North,2,10.0,31.0,52,0.00,,,0.00,530.000000,,2013-03-01 18:42:00,
2013-03-01 12:52:00,28.0,13.0,-100.00,North,2,10.0,31.0,52,0.00,,,0.00,530.000000,,2013-03-01 18:52:00,
2013-03-01 13:01:00,28.0,13.0,-100.00,North,2,10.0,31.0,52,0.00,,,0.00,530.000000,,2013-03-01 19:01:00,
2013-03-01 13:11:00,28.0,13.0,-100.00,North,2,10.0,31.0,52,0.00,,,0.00,530.000000,,2013-03-01 19:11:00,
2013-03-01 13:32:00,31.0,10.0,-100.00,North,2,10.0,19.0,41,0.00,,,0.00,631.000000,,2013-03-01 19:32:00,
2013-03-01 13:42:00,31.0,10.0,-100.00,North,2,10.0,19.0,41,0.00,,,0.00,631.000000,,2013-03-01 19:42:00,
2013-03-01 13:52:00,31.0,10.0,-100.00,North,2,10.0,19.0,41,0.00,,,0.00,631.000000,,2013-03-01 19:52:00,
2013-03-01 14:01:00,31.0,10.0,-100.00,North,2,10.0,19.0,41,0.00,,,0.00,631.000000,,2013-03-01 20:01:00,
2013-03-01 14:11:00,31.0,10.0,-100.00,North,2,10.0,19.0,41,0.00,,,0.00,631.000000,,2013-03-01 20:11:00,
2013-03-01 14:32:00,30.0,8.0,-100.00,NNE,17,9.0,18.0,39,0.00,,,0.00,557.000000,,2013-03-01 20:32:00,
2013-03-01 14:42:00,30.0,8.0,-100.00,NNE,17,9.0,18.0,39,0.00,,,0.00,557.000000,,2013-03-01 20:42:00,
2013-03-01 14:52:00,30.0,8.0,-100.00,NNE,17,9.0,18.0,39,0.00,,,0.00,557.000000,,2013-03-01 20:52:00,
2013-03-01 15:01:00,30.0,8.0,-100.00,NNE,17,9.0,18.0,39,0.00,,,0.00,557.000000,,2013-03-01 21:01:00,
2013-03-01 15:11:00,30.0,8.0,-100.00,NNE,17,9.0,18.0,39,0.00,,,0.00,557.000000,,2013-03-01 21:11:00,
2013-03-01 15:32:00,28.0,7.0,-100.00,North,6,13.0,27.0,40,0.00,,,-99.99,454.000000,,2013-03-01 21:32:00,
2013-03-01 15:42:00,28.0,7.0,-100.00,North,6,13.0,27.0,40,0.00,,,-99.99,454.000000,,2013-03-01 21:42:00,
2013-03-01 15:52:00,28.0,7.0,-100.00,North,6,13.0,27.0,40,0.00,,,-99.99,454.000000,,2013-03-01 21:52:00,
2013-03-01 16:01:00,28.0,7.0,-100.00,North,6,13.0,27.0,40,0.00,,,-99.99,454.000000,,2013-03-01 22:01:00,
2013-03-01 16:11:00,28.0,7.0,-100.00,North,6,13.0,27.0,40,0.00,,,-99.99,454.000000,,2013-03-01 22:11:00,
2013-03-01 16:32:00,24.0,7.0,-100.00,NNE,22,10.0,20.0,48,0.00,,,0.00,288.000000,,2013-03-01 22:32:00,
2013-03-01 16:42:00,24.0,7.0,-100.00,NNE,22,10.0,20.0,48,0.00,,,0.00,288.000000,,2013-03-01 22:42:00,
2013-03-01 16:52:00,24.0,7.0,-100.00,NNE,22,10.0,20.0,48,0.00,,,0.00,288.000000,,2013-03-01 22:52:00,
2013-03-01 17:01:00,24.0,7.0,-100.00,NNE,22,10.0,20.0,48,0.00,,,0.00,288.000000,,2013-03-01 23:01:00,
2013-03-01 17:11:00,24.0,7.0,-100.00,NNE,22,10.0,20.0,48,0.00,,,0.00,288.000000,,2013-03-01 23:11:00,
2013-03-01 17:32:00,20.0,8.0,-100.00,North,10,10.0,21.0,58,0.00,,,0.00,89.000000,,2013-03-01 23:32:00,
2013-03-01 17:42:00,20.0,8.0,-100.00,North,10,10.0,21.0,58,0.00,,,0.00,89.000000,,2013-03-01 23:42:00,
2013-03-01 17:52:00,20.0,8.0,-100.00,North,10,10.0,21.0,58,0.00,,,0.00,89.000000,,2013-03-01 23:52:00,
2013-03-01 18:02:00,20.0,8.0,-100.00,North,10,10.0,21.0,58,0.00,,,0.00,89.000000,,2013-03-02 00:02:00,
2013-03-01 18:11:00,20.0,8.0,-100.00,North,10,10.0,21.0,58,0.00,,,0.00,89.000000,,2013-03-02 00:11:00,
2013-03-01 18:42:00,18.0,9.0,-100.00,North,11,9.0,20.0,66,0.00,,,0.00,8.000000,,2013-03-02 00:42:00,
2013-03-01 18:52:00,18.0,9.0,-100.00,North,11,9.0,20.0,66,0.00,,,0.00,8.000000,,2013-03-02 00:52:00,
2013-03-01 19:01:00,18.0,9.0,-100.00,North,11,9.0,20.0,66,0.00,,,0.00,8.000000,,2013-03-02 01:01:00,
2013-03-01 19:11:00,18.0,9.0,-100.00,North,11,9.0,20.0,66,0.00,,,0.00,8.000000,,2013-03-02 01:11:00,
2013-03-01 19:42:00,17.0,9.0,-100.00,North,7,8.0,18.0,69,0.00,,,0.00,0.000000,,2013-03-02 01:42:00,
2013-03-01 19:52:00,17.0,9.0,-100.00,North,7,8.0,18.0,69,0.00,,,0.00,0.000000,,2013-03-02 01:52:00,
2013-03-01 20:01:00,17.0,9.0,-100.00,North,7,8.0,18.0,69,0.00,,,0.00,0.000000,,2013-03-02 02:01:00,
2013-03-01 20:11:00,17.0,9.0,-100.00,North,7,8.0,18.0,69,0.00,,,0.00,0.000000,,2013-03-02 02:11:00,
2013-03-01 20:32:00,16.0,8.0,-100.00,North,9,7.0,13.0,71,0.00,,,0.00,0.000000,,2013-03-02 02:32:00,
2013-03-01 20:42:00,16.0,8.0,-100.00,North,9,7.0,13.0,71,0.00,,,0.00,0.000000,,2013-03-02 02:42:00,
2013-03-01 20:52:00,16.0,8.0,-100.00,North,9,7.0,13.0,71,0.00,,,0.00,0.000000,,2013-03-02 02:52:00,
2013-03-01 21:02:00,16.0,8.0,-100.00,North,9,7.0,13.0,71,0.00,,,0.00,0.000000,,2013-03-02 03:02:00,
2013-03-01 21:11:00,16.0,8.0,-100.00,North,9,7.0,13.0,71,0.00,,,0.00,0.000000,,2013-03-02 03:11:00,
2013-03-01 21:32:00,16.0,8.0,-100.00,North,11,6.0,13.0,71,0.00,,,0.00,0.000000,,2013-03-02 03:32:00,
2013-03-01 21:42:00,16.0,8.0,-100.00,North,11,6.0,13.0,71,0.00,,,0.00,0.000000,,2013-03-02 03:42:00,
2013-03-01 21:52:00,16.0,8.0,-100.00,North,11,6.0,13.0,71,0.00,,,0.00,0.000000,,2013-03-02 03:52:00,
2013-03-01 22:01:00,16.0,8.0,-100.00,North,11,6.0,13.0,71,0.00,,,0.00,0.000000,,2013-03-02 04:01:00,
2013-03-01 22:11:00,16.0,8.0,-100.00,North,11,6.0,13.0,71,0.00,,,0.00,0.000000,,2013-03-02 04:11:00,
2013-03-01 22:12:00,17.0,8.0,-100.00,North,9,6.0,14.0,67,0.00,,,0.00,0.000000,,2013-03-02 04:12:00,
2013-03-01 22:32:00,17.0,8.0,-100.00,North,9,6.0,14.0,67,0.00,,,0.00,0.000000,,2013-03-02 04:32:00,
2013-03-01 22:42:00,17.0,8.0,-100.00,North,9,6.0,14.0,67,0.00,,,0.00,0.000000,,2013-03-02 04:42:00,
2013-03-01 22:52:00,17.0,8.0,-100.00,North,9,6.0,14.0,67,0.00,,,0.00,0.000000,,2013-03-02 04:52:00,
2013-03-01 23:02:00,17.0,8.0,-100.00,North,9,6.0,14.0,67,0.00,,,0.00,0.000000,,2013-03-02 05:02:00,
2013-03-01 23:32:00,16.0,7.0,-100.00,North,354,7.0,16.0,68,0.00,,,0.00,0.000000,,2013-03-02 05:32:00,
2013-03-01 23:42:00,16.0,7.0,-100.00,North,354,7.0,16.0,68,0.00,,,0.00,0.000000,,2013-03-02 05:42:00,
2013-03-01 23:52:00,16.0,7.0,-100.00,North,354,7.0,16.0,68,0.00,,,0.00,0.000000,,2013-03-02 05:52:00,